sensor_id;sensor_type;location;lat;lon;timestamp;temperature;humidity
2967;DHT22;1493;51.496;7.210;2022-07-22T00:01:04;18.00;99.90
2967;DHT22;1493;51.496;7.210;2022-07-22T00:03:31;18.00;99.90
2967;DHT22;1493;51.496;7.210;2022-07-22T00:05:58;18.00;99.90
2967;DHT22;1493;51.496;7.210;2022-07-22T00:08:26;17.90;99.90
2967;DHT22;1493;51.496;7.210;2022-07-22T00:10:53;18.00;99.90
2967;DHT22;1493;51.496;7.210;2022-07-22T00:13:20;18.00;99.90
2967;DHT22;1493;51.496;7.210;2022-07-22T00:15:46;17.90;99.90
2967;DHT22;1493;51.496;7.210;2022-07-22T00:18:13;18.00;99.90
2967;DHT22;1493;51.496;7.210;2022-07-22T00:20:40;18.00;99.90
2967;DHT22;1493;51.496;7.210;2022-07-22T00:23:08;18.00;99.90
2967;DHT22;1493;51.496;7.210;2022-07-22T00:25:36;18.00;99.90
2967;DHT22;1493;51.496;7.210;2022-07-22T00:28:04;18.10;99.90
2967;DHT22;1493;51.496;7.210;2022-07-22T00:30:30;18.10;99.90
2967;DHT22;1493;51.496;7.210;2022-07-22T00:32:57;18.10;99.90
2967;DHT22;1493;51.496;7.210;2022-07-22T00:35:24;18.00;99.90
2967;DHT22;1493;51.496;7.210;2022-07-22T00:37:51;18.10;99.90
2967;DHT22;1493;51.496;7.210;2022-07-22T00:40:18;18.10;99.90
2967;DHT22;1493;51.496;7.210;2022-07-22T00:42:46;18.00;99.90
2967;DHT22;1493;51.496;7.210;2022-07-22T00:45:14;18.00;99.90
2967;DHT22;1493;51.496;7.210;2022-07-22T00:47:41;18.00;99.90
2967;DHT22;1493;51.496;7.210;2022-07-22T00:50:08;18.00;99.90
2967;DHT22;1493;51.496;7.210;2022-07-22T00:52:35;17.90;99.90
2967;DHT22;1493;51.496;7.210;2022-07-22T00:55:04;17.90;99.90
2967;DHT22;1493;51.496;7.210;2022-07-22T00:57:31;17.80;99.90
2967;DHT22;1493;51.496;7.210;2022-07-22T00:59:59;17.80;99.90
2967;DHT22;1493;51.496;7.210;2022-07-22T01:04:55;17.90;99.90
2967;DHT22;1493;51.496;7.210;2022-07-22T01:07:22;17.90;99.90
2967;DHT22;1493;51.496;7.210;2022-07-22T01:09:49;17.90;99.90
2967;DHT22;1493;51.496;7.210;2022-07-22T01:12:16;17.80;99.90
2967;DHT22;1493;51.496;7.210;2022-07-22T01:14:43;17.90;99.90
2967;DHT22;1493;51.496;7.210;2022-07-22T01:17:11;17.90;99.90
2967;DHT22;1493;51.496;7.210;2022-07-22T01:19:38;17.90;99.90
2967;DHT22;1493;51.496;7.210;2022-07-22T01:22:07;17.90;99.90
2967;DHT22;1493;51.496;7.210;2022-07-22T01:24:34;17.90;99.90
2967;DHT22;1493;51.496;7.210;2022-07-22T01:27:01;17.80;99.90
2967;DHT22;1493;51.496;7.210;2022-07-22T01:29:28;17.90;99.90
2967;DHT22;1493;51.496;7.210;2022-07-22T01:31:55;17.90;99.90
2967;DHT22;1493;51.496;7.210;2022-07-22T01:34:22;17.80;99.90
2967;DHT22;1493;51.496;7.210;2022-07-22T01:36:49;17.80;99.90
2967;DHT22;1493;51.496;7.210;2022-07-22T01:39:17;17.90;99.90
2967;DHT22;1493;51.496;7.210;2022-07-22T01:41:44;17.90;99.90
2967;DHT22;1493;51.496;7.210;2022-07-22T01:44:11;17.90;99.90
2967;DHT22;1493;51.496;7.210;2022-07-22T01:46:38;17.90;99.90
2967;DHT22;1493;51.496;7.210;2022-07-22T01:49:05;17.90;99.90
2967;DHT22;1493;51.496;7.210;2022-07-22T01:51:32;17.80;99.90
2967;DHT22;1493;51.496;7.210;2022-07-22T01:53:59;17.90;99.90
2967;DHT22;1493;51.496;7.210;2022-07-22T01:56:27;17.90;99.90
2967;DHT22;1493;51.496;7.210;2022-07-22T01:58:54;17.90;99.90
2967;DHT22;1493;51.496;7.210;2022-07-22T02:01:21;17.90;99.90
2967;DHT22;1493;51.496;7.210;2022-07-22T02:03:48;17.90;99.90
2967;DHT22;1493;51.496;7.210;2022-07-22T02:06:14;17.90;99.90
2967;DHT22;1493;51.496;7.210;2022-07-22T02:08:41;17.90;99.90
2967;DHT22;1493;51.496;7.210;2022-07-22T02:11:08;17.90;99.90
2967;DHT22;1493;51.496;7.210;2022-07-22T02:13:36;17.90;99.90
2967;DHT22;1493;51.496;7.210;2022-07-22T02:16:04;17.80;99.90
2967;DHT22;1493;51.496;7.210;2022-07-22T02:18:31;17.80;99.90
2967;DHT22;1493;51.496;7.210;2022-07-22T02:20:57;17.80;99.90
2967;DHT22;1493;51.496;7.210;2022-07-22T02:23:24;17.80;99.90
2967;DHT22;1493;51.496;7.210;2022-07-22T02:25:51;17.80;99.90
2967;DHT22;1493;51.496;7.210;2022-07-22T02:28:18;17.80;99.90
2967;DHT22;1493;51.496;7.210;2022-07-22T02:30:46;17.80;99.90
2967;DHT22;1493;51.496;7.210;2022-07-22T02:33:13;17.70;99.90
2967;DHT22;1493;51.496;7.210;2022-07-22T02:35:40;17.80;99.90
2967;DHT22;1493;51.496;7.210;2022-07-22T02:38:07;17.80;99.90
2967;DHT22;1493;51.496;7.210;2022-07-22T02:40:34;17.80;99.90
2967;DHT22;1493;51.496;7.210;2022-07-22T02:43:01;17.80;99.90
2967;DHT22;1493;51.496;7.210;2022-07-22T02:45:27;17.80;99.90
2967;DHT22;1493;51.496;7.210;2022-07-22T02:47:56;17.80;99.90
2967;DHT22;1493;51.496;7.210;2022-07-22T02:50:23;17.80;99.90
2967;DHT22;1493;51.496;7.210;2022-07-22T02:52:51;17.80;99.90
2967;DHT22;1493;51.496;7.210;2022-07-22T02:55:18;17.80;99.90
2967;DHT22;1493;51.496;7.210;2022-07-22T02:57:45;17.80;99.90
2967;DHT22;1493;51.496;7.210;2022-07-22T03:00:13;17.80;99.90
2967;DHT22;1493;51.496;7.210;2022-07-22T03:02:40;17.70;99.90
2967;DHT22;1493;51.496;7.210;2022-07-22T03:05:09;17.70;99.90
2967;DHT22;1493;51.496;7.210;2022-07-22T03:07:36;17.70;99.90
2967;DHT22;1493;51.496;7.210;2022-07-22T03:10:04;17.60;99.90
2967;DHT22;1493;51.496;7.210;2022-07-22T03:12:31;17.50;99.90
2967;DHT22;1493;51.496;7.210;2022-07-22T03:14:58;17.60;99.90
2967;DHT22;1493;51.496;7.210;2022-07-22T03:17:25;17.60;99.90
2967;DHT22;1493;51.496;7.210;2022-07-22T03:19:52;17.60;99.90
2967;DHT22;1493;51.496;7.210;2022-07-22T03:22:20;17.60;99.90
2967;DHT22;1493;51.496;7.210;2022-07-22T03:24:47;17.50;99.90
2967;DHT22;1493;51.496;7.210;2022-07-22T03:27:14;17.60;99.90
2967;DHT22;1493;51.496;7.210;2022-07-22T03:29:41;17.60;99.90
2967;DHT22;1493;51.496;7.210;2022-07-22T03:32:07;17.60;99.90
2967;DHT22;1493;51.496;7.210;2022-07-22T03:34:34;17.60;99.90
2967;DHT22;1493;51.496;7.210;2022-07-22T03:37:01;17.40;99.90
2967;DHT22;1493;51.496;7.210;2022-07-22T03:39:29;17.50;99.90
2967;DHT22;1493;51.496;7.210;2022-07-22T03:41:56;17.50;99.90
2967;DHT22;1493;51.496;7.210;2022-07-22T03:44:23;17.50;99.90
2967;DHT22;1493;51.496;7.210;2022-07-22T03:46:50;17.50;99.90
2967;DHT22;1493;51.496;7.210;2022-07-22T03:49:17;17.50;99.90
2967;DHT22;1493;51.496;7.210;2022-07-22T03:51:44;17.50;99.90
2967;DHT22;1493;51.496;7.210;2022-07-22T03:54:11;17.50;99.90
2967;DHT22;1493;51.496;7.210;2022-07-22T03:56:39;17.60;99.90
2967;DHT22;1493;51.496;7.210;2022-07-22T03:59:06;17.60;99.90
2967;DHT22;1493;51.496;7.210;2022-07-22T04:01:33;17.60;99.90
2967;DHT22;1493;51.496;7.210;2022-07-22T04:03:59;17.50;99.90
2967;DHT22;1493;51.496;7.210;2022-07-22T04:06:26;17.50;99.90
2967;DHT22;1493;51.496;7.210;2022-07-22T04:08:53;17.50;99.90
2967;DHT22;1493;51.496;7.210;2022-07-22T04:11:20;17.50;99.90
2967;DHT22;1493;51.496;7.210;2022-07-22T04:13:48;17.50;99.90
2967;DHT22;1493;51.496;7.210;2022-07-22T04:16:15;17.50;99.90
2967;DHT22;1493;51.496;7.210;2022-07-22T04:18:42;17.50;99.90
2967;DHT22;1493;51.496;7.210;2022-07-22T04:21:09;17.50;99.90
2967;DHT22;1493;51.496;7.210;2022-07-22T04:23:36;17.50;99.90
2967;DHT22;1493;51.496;7.210;2022-07-22T04:26:05;17.40;99.90
2967;DHT22;1493;51.496;7.210;2022-07-22T04:28:33;17.40;99.90
2967;DHT22;1493;51.496;7.210;2022-07-22T04:31:01;17.50;99.90
2967;DHT22;1493;51.496;7.210;2022-07-22T04:33:29;17.50;99.90
2967;DHT22;1493;51.496;7.210;2022-07-22T04:35:56;17.50;99.90
2967;DHT22;1493;51.496;7.210;2022-07-22T04:38:23;17.50;99.90
2967;DHT22;1493;51.496;7.210;2022-07-22T04:40:50;17.60;99.90
2967;DHT22;1493;51.496;7.210;2022-07-22T04:43:17;17.40;99.90
2967;DHT22;1493;51.496;7.210;2022-07-22T04:45:44;17.40;99.90
2967;DHT22;1493;51.496;7.210;2022-07-22T04:48:12;17.50;99.90
2967;DHT22;1493;51.496;7.210;2022-07-22T04:50:39;17.50;99.90
2967;DHT22;1493;51.496;7.210;2022-07-22T04:53:06;17.50;99.90
2967;DHT22;1493;51.496;7.210;2022-07-22T04:55:33;17.50;99.90
2967;DHT22;1493;51.496;7.210;2022-07-22T04:58:00;17.60;99.90
2967;DHT22;1493;51.496;7.210;2022-07-22T05:00:27;17.70;99.90
2967;DHT22;1493;51.496;7.210;2022-07-22T05:02:54;17.60;99.90
2967;DHT22;1493;51.496;7.210;2022-07-22T05:05:23;17.70;99.90
2967;DHT22;1493;51.496;7.210;2022-07-22T05:07:50;17.60;99.90
2967;DHT22;1493;51.496;7.210;2022-07-22T05:10:16;17.60;99.90
2967;DHT22;1493;51.496;7.210;2022-07-22T05:12:43;17.50;99.90
2967;DHT22;1493;51.496;7.210;2022-07-22T05:15:10;17.50;99.90
2967;DHT22;1493;51.496;7.210;2022-07-22T05:17:37;17.50;99.90
2967;DHT22;1493;51.496;7.210;2022-07-22T05:20:05;17.60;99.90
2967;DHT22;1493;51.496;7.210;2022-07-22T05:22:33;17.70;99.90
2967;DHT22;1493;51.496;7.210;2022-07-22T05:25:00;17.70;99.90
2967;DHT22;1493;51.496;7.210;2022-07-22T05:27:27;17.70;99.90
2967;DHT22;1493;51.496;7.210;2022-07-22T05:29:54;17.70;99.90
2967;DHT22;1493;51.496;7.210;2022-07-22T05:32:21;17.80;99.90
2967;DHT22;1493;51.496;7.210;2022-07-22T05:34:48;17.80;99.90
2967;DHT22;1493;51.496;7.210;2022-07-22T05:37:14;17.90;99.90
2967;DHT22;1493;51.496;7.210;2022-07-22T05:39:44;17.90;99.90
2967;DHT22;1493;51.496;7.210;2022-07-22T05:42:10;17.90;99.90
2967;DHT22;1493;51.496;7.210;2022-07-22T05:44:37;17.90;99.90
2967;DHT22;1493;51.496;7.210;2022-07-22T05:47:04;17.80;99.90
2967;DHT22;1493;51.496;7.210;2022-07-22T05:49:31;17.90;99.90
2967;DHT22;1493;51.496;7.210;2022-07-22T05:51:58;17.80;99.90
2967;DHT22;1493;51.496;7.210;2022-07-22T05:54:26;17.90;99.90
2967;DHT22;1493;51.496;7.210;2022-07-22T05:56:54;17.80;99.90
2967;DHT22;1493;51.496;7.210;2022-07-22T05:59:21;17.80;99.90
2967;DHT22;1493;51.496;7.210;2022-07-22T06:01:48;17.80;99.90
2967;DHT22;1493;51.496;7.210;2022-07-22T06:04:15;17.80;99.90
2967;DHT22;1493;51.496;7.210;2022-07-22T06:06:42;17.70;99.90
2967;DHT22;1493;51.496;7.210;2022-07-22T06:09:10;17.60;99.90
2967;DHT22;1493;51.496;7.210;2022-07-22T06:11:36;17.50;99.90
2967;DHT22;1493;51.496;7.210;2022-07-22T06:14:05;17.50;99.90
2967;DHT22;1493;51.496;7.210;2022-07-22T06:16:31;17.50;99.90
2967;DHT22;1493;51.496;7.210;2022-07-22T06:18:59;17.60;99.90
2967;DHT22;1493;51.496;7.210;2022-07-22T06:21:26;17.70;99.90
2967;DHT22;1493;51.496;7.210;2022-07-22T06:23:53;17.70;99.90
2967;DHT22;1493;51.496;7.210;2022-07-22T06:26:21;17.80;99.90
2967;DHT22;1493;51.496;7.210;2022-07-22T06:28:48;17.70;99.90
2967;DHT22;1493;51.496;7.210;2022-07-22T06:31:16;17.70;99.90
2967;DHT22;1493;51.496;7.210;2022-07-22T06:33:43;17.60;99.90
2967;DHT22;1493;51.496;7.210;2022-07-22T06:36:10;17.50;99.90
2967;DHT22;1493;51.496;7.210;2022-07-22T06:38:37;17.70;99.90
2967;DHT22;1493;51.496;7.210;2022-07-22T06:41:04;17.80;99.90
2967;DHT22;1493;51.496;7.210;2022-07-22T06:43:31;17.90;99.90
2967;DHT22;1493;51.496;7.210;2022-07-22T06:46:03;17.90;99.90
2967;DHT22;1493;51.496;7.210;2022-07-22T06:48:31;17.90;99.90
2967;DHT22;1493;51.496;7.210;2022-07-22T06:50:59;18.00;62.40
2967;DHT22;1493;51.496;7.210;2022-07-22T06:53:26;18.00;87.80
2967;DHT22;1493;51.496;7.210;2022-07-22T06:55:53;18.10;99.90
2967;DHT22;1493;51.496;7.210;2022-07-22T06:58:20;18.20;99.90
2967;DHT22;1493;51.496;7.210;2022-07-22T07:00:50;18.20;75.40
2967;DHT22;1493;51.496;7.210;2022-07-22T07:03:17;18.30;19.80
2967;DHT22;1493;51.496;7.210;2022-07-22T07:05:45;18.40;59.20
2967;DHT22;1493;51.496;7.210;2022-07-22T07:08:12;18.40;76.10
2967;DHT22;1493;51.496;7.210;2022-07-22T07:10:39;18.40;99.60
2967;DHT22;1493;51.496;7.210;2022-07-22T07:13:06;18.50;98.80
2967;DHT22;1493;51.496;7.210;2022-07-22T07:15:33;18.50;89.70
2967;DHT22;1493;51.496;7.210;2022-07-22T07:18:00;18.60;99.30
2967;DHT22;1493;51.496;7.210;2022-07-22T07:20:26;18.50;67.20
2967;DHT22;1493;51.496;7.210;2022-07-22T07:22:55;18.50;1.00
2967;DHT22;1493;51.496;7.210;2022-07-22T07:25:22;18.60;9.30
2967;DHT22;1493;51.496;7.210;2022-07-22T07:27:48;18.60;59.90
2967;DHT22;1493;51.496;7.210;2022-07-22T07:30:16;18.70;66.70
2967;DHT22;1493;51.496;7.210;2022-07-22T07:32:43;18.70;95.50
2967;DHT22;1493;51.496;7.210;2022-07-22T07:35:10;18.80;99.90
2967;DHT22;1493;51.496;7.210;2022-07-22T07:37:37;18.90;82.90
2967;DHT22;1493;51.496;7.210;2022-07-22T07:40:10;18.90;10.10
2967;DHT22;1493;51.496;7.210;2022-07-22T07:42:47;18.90;1.00
2967;DHT22;1493;51.496;7.210;2022-07-22T07:45:20;18.80;1.00
2967;DHT22;1493;51.496;7.210;2022-07-22T07:47:47;18.80;1.00
2967;DHT22;1493;51.496;7.210;2022-07-22T07:50:13;18.90;1.00
2967;DHT22;1493;51.496;7.210;2022-07-22T07:52:42;18.90;1.00
2967;DHT22;1493;51.496;7.210;2022-07-22T07:55:13;18.90;1.00
2967;DHT22;1493;51.496;7.210;2022-07-22T07:57:43;19.00;1.00
2967;DHT22;1493;51.496;7.210;2022-07-22T08:00:16;19.00;1.00
2967;DHT22;1493;51.496;7.210;2022-07-22T08:02:43;19.00;1.00
2967;DHT22;1493;51.496;7.210;2022-07-22T08:05:11;19.00;1.00
2967;DHT22;1493;51.496;7.210;2022-07-22T08:07:38;19.00;1.00
2967;DHT22;1493;51.496;7.210;2022-07-22T08:10:06;19.00;1.00
2967;DHT22;1493;51.496;7.210;2022-07-22T08:12:34;18.90;1.00
2967;DHT22;1493;51.496;7.210;2022-07-22T08:15:02;19.00;1.00
2967;DHT22;1493;51.496;7.210;2022-07-22T08:17:36;19.00;1.00
2967;DHT22;1493;51.496;7.210;2022-07-22T08:20:05;19.00;1.00
2967;DHT22;1493;51.496;7.210;2022-07-22T08:22:33;19.00;1.00
2967;DHT22;1493;51.496;7.210;2022-07-22T08:25:00;19.00;1.00
2967;DHT22;1493;51.496;7.210;2022-07-22T08:27:27;19.00;1.00
2967;DHT22;1493;51.496;7.210;2022-07-22T08:29:55;19.20;1.00
2967;DHT22;1493;51.496;7.210;2022-07-22T08:32:22;19.20;1.00
2967;DHT22;1493;51.496;7.210;2022-07-22T08:34:49;19.20;1.00
2967;DHT22;1493;51.496;7.210;2022-07-22T08:37:19;19.30;1.00
2967;DHT22;1493;51.496;7.210;2022-07-22T08:39:46;19.20;1.00
2967;DHT22;1493;51.496;7.210;2022-07-22T08:42:13;19.30;1.00
2967;DHT22;1493;51.496;7.210;2022-07-22T08:44:40;19.30;1.00
2967;DHT22;1493;51.496;7.210;2022-07-22T08:47:09;19.40;1.00
2967;DHT22;1493;51.496;7.210;2022-07-22T08:49:35;19.30;1.00
2967;DHT22;1493;51.496;7.210;2022-07-22T08:52:02;19.40;1.00
2967;DHT22;1493;51.496;7.210;2022-07-22T08:54:29;19.40;99.90
2967;DHT22;1493;51.496;7.210;2022-07-22T08:56:56;19.40;1.00
2967;DHT22;1493;51.496;7.210;2022-07-22T08:59:24;19.40;1.00
2967;DHT22;1493;51.496;7.210;2022-07-22T09:02:05;19.40;1.00
2967;DHT22;1493;51.496;7.210;2022-07-22T09:04:50;19.30;1.00
2967;DHT22;1493;51.496;7.210;2022-07-22T09:07:27;19.30;1.00
2967;DHT22;1493;51.496;7.210;2022-07-22T09:09:55;19.20;1.00
2967;DHT22;1493;51.496;7.210;2022-07-22T09:12:22;19.20;99.90
2967;DHT22;1493;51.496;7.210;2022-07-22T09:14:50;19.30;99.90
2967;DHT22;1493;51.496;7.210;2022-07-22T09:17:27;19.40;1.00
2967;DHT22;1493;51.496;7.210;2022-07-22T09:19:57;19.20;1.00
2967;DHT22;1493;51.496;7.210;2022-07-22T09:22:36;19.20;1.00
2967;DHT22;1493;51.496;7.210;2022-07-22T09:25:31;19.20;1.00
2967;DHT22;1493;51.496;7.210;2022-07-22T09:28:10;19.30;1.00
2967;DHT22;1493;51.496;7.210;2022-07-22T09:30:39;19.40;1.00
2967;DHT22;1493;51.496;7.210;2022-07-22T09:33:07;19.40;1.00
2967;DHT22;1493;51.496;7.210;2022-07-22T09:35:35;19.30;1.00
2967;DHT22;1493;51.496;7.210;2022-07-22T09:38:04;19.40;1.00
2967;DHT22;1493;51.496;7.210;2022-07-22T09:40:32;19.10;99.90
2967;DHT22;1493;51.496;7.210;2022-07-22T09:43:02;19.20;1.00
2967;DHT22;1493;51.496;7.210;2022-07-22T09:45:30;19.20;99.90
2967;DHT22;1493;51.496;7.210;2022-07-22T09:47:59;19.30;1.00
2967;DHT22;1493;51.496;7.210;2022-07-22T09:50:29;19.40;1.00
2967;DHT22;1493;51.496;7.210;2022-07-22T09:52:59;19.40;1.00
2967;DHT22;1493;51.496;7.210;2022-07-22T09:55:29;19.40;1.00
2967;DHT22;1493;51.496;7.210;2022-07-22T09:57:57;19.60;1.00
2967;DHT22;1493;51.496;7.210;2022-07-22T10:00:26;19.60;1.00
2967;DHT22;1493;51.496;7.210;2022-07-22T10:02:55;19.70;1.00
2967;DHT22;1493;51.496;7.210;2022-07-22T10:05:24;19.80;85.40
2967;DHT22;1493;51.496;7.210;2022-07-22T10:07:52;19.90;99.90
2967;DHT22;1493;51.496;7.210;2022-07-22T10:10:23;20.10;99.90
2967;DHT22;1493;51.496;7.210;2022-07-22T10:12:52;20.00;99.90
2967;DHT22;1493;51.496;7.210;2022-07-22T10:15:19;20.00;1.00
2967;DHT22;1493;51.496;7.210;2022-07-22T10:17:49;20.20;99.90
2967;DHT22;1493;51.496;7.210;2022-07-22T10:20:18;20.40;1.00
2967;DHT22;1493;51.496;7.210;2022-07-22T10:22:53;20.40;1.00
2967;DHT22;1493;51.496;7.210;2022-07-22T10:25:23;20.40;1.00
2967;DHT22;1493;51.496;7.210;2022-07-22T10:27:53;20.50;99.90
2967;DHT22;1493;51.496;7.210;2022-07-22T10:30:22;20.60;1.00
2967;DHT22;1493;51.496;7.210;2022-07-22T10:33:09;20.60;1.00
2967;DHT22;1493;51.496;7.210;2022-07-22T10:35:52;20.40;99.90
2967;DHT22;1493;51.496;7.210;2022-07-22T10:38:23;20.70;1.00
2967;DHT22;1493;51.496;7.210;2022-07-22T10:40:53;20.70;99.90
2967;DHT22;1493;51.496;7.210;2022-07-22T10:43:23;20.90;99.90
2967;DHT22;1493;51.496;7.210;2022-07-22T10:45:53;21.00;99.90
2967;DHT22;1493;51.496;7.210;2022-07-22T10:48:22;21.00;99.90
2967;DHT22;1493;51.496;7.210;2022-07-22T10:50:54;21.10;1.00
2967;DHT22;1493;51.496;7.210;2022-07-22T10:53:39;21.30;99.90
2967;DHT22;1493;51.496;7.210;2022-07-22T10:56:14;21.30;74.60
2967;DHT22;1493;51.496;7.210;2022-07-22T10:58:49;21.20;99.90
2967;DHT22;1493;51.496;7.210;2022-07-22T11:01:20;20.80;99.90
2967;DHT22;1493;51.496;7.210;2022-07-22T11:03:48;21.00;1.00
2967;DHT22;1493;51.496;7.210;2022-07-22T11:06:18;21.10;1.00
2967;DHT22;1493;51.496;7.210;2022-07-22T11:08:47;21.10;99.90
2967;DHT22;1493;51.496;7.210;2022-07-22T11:11:16;21.10;1.00
2967;DHT22;1493;51.496;7.210;2022-07-22T11:13:43;21.10;89.60
2967;DHT22;1493;51.496;7.210;2022-07-22T11:16:16;21.10;99.90
2967;DHT22;1493;51.496;7.210;2022-07-22T11:18:51;20.70;92.60
2967;DHT22;1493;51.496;7.210;2022-07-22T11:21:20;20.70;1.00
2967;DHT22;1493;51.496;7.210;2022-07-22T11:23:49;20.70;99.90
2967;DHT22;1493;51.496;7.210;2022-07-22T11:26:22;20.80;99.90
2967;DHT22;1493;51.496;7.210;2022-07-22T11:28:51;21.00;2.90
2967;DHT22;1493;51.496;7.210;2022-07-22T11:31:19;21.00;1.00
2967;DHT22;1493;51.496;7.210;2022-07-22T11:33:46;21.10;1.00
2967;DHT22;1493;51.496;7.210;2022-07-22T11:36:13;20.90;99.90
2967;DHT22;1493;51.496;7.210;2022-07-22T11:38:45;21.00;99.90
2967;DHT22;1493;51.496;7.210;2022-07-22T11:41:13;21.10;26.60
2967;DHT22;1493;51.496;7.210;2022-07-22T11:43:44;21.20;99.90
2967;DHT22;1493;51.496;7.210;2022-07-22T11:46:12;21.30;1.00
2967;DHT22;1493;51.496;7.210;2022-07-22T11:48:39;21.50;93.50
2967;DHT22;1493;51.496;7.210;2022-07-22T11:51:07;21.60;99.90
2967;DHT22;1493;51.496;7.210;2022-07-22T11:53:36;21.20;1.00
2967;DHT22;1493;51.496;7.210;2022-07-22T11:56:04;21.40;99.90
2967;DHT22;1493;51.496;7.210;2022-07-22T11:58:35;21.50;40.70
2967;DHT22;1493;51.496;7.210;2022-07-22T12:01:05;21.50;99.90
2967;DHT22;1493;51.496;7.210;2022-07-22T12:03:34;21.70;1.00
2967;DHT22;1493;51.496;7.210;2022-07-22T12:06:02;22.00;99.90
2967;DHT22;1493;51.496;7.210;2022-07-22T12:08:29;22.20;1.00
2967;DHT22;1493;51.496;7.210;2022-07-22T12:10:56;22.10;1.00
2967;DHT22;1493;51.496;7.210;2022-07-22T12:13:29;22.30;1.00
2967;DHT22;1493;51.496;7.210;2022-07-22T12:15:56;22.30;1.00
2967;DHT22;1493;51.496;7.210;2022-07-22T12:18:26;22.20;1.00
2967;DHT22;1493;51.496;7.210;2022-07-22T12:20:55;22.50;1.00
2967;DHT22;1493;51.496;7.210;2022-07-22T12:23:23;22.70;99.90
2967;DHT22;1493;51.496;7.210;2022-07-22T12:25:59;22.40;1.00
2967;DHT22;1493;51.496;7.210;2022-07-22T12:28:35;22.50;1.00
2967;DHT22;1493;51.496;7.210;2022-07-22T12:31:02;22.50;99.90
2967;DHT22;1493;51.496;7.210;2022-07-22T12:33:30;22.50;99.90
2967;DHT22;1493;51.496;7.210;2022-07-22T12:35:59;22.40;1.00
2967;DHT22;1493;51.496;7.210;2022-07-22T12:38:26;22.20;53.80
2967;DHT22;1493;51.496;7.210;2022-07-22T12:40:53;22.20;99.90
2967;DHT22;1493;51.496;7.210;2022-07-22T12:43:24;22.30;99.90
2967;DHT22;1493;51.496;7.210;2022-07-22T12:45:51;22.50;99.90
2967;DHT22;1493;51.496;7.210;2022-07-22T12:48:21;22.70;1.00
2967;DHT22;1493;51.496;7.210;2022-07-22T12:50:58;22.80;99.90
2967;DHT22;1493;51.496;7.210;2022-07-22T12:53:25;22.50;99.90
2967;DHT22;1493;51.496;7.210;2022-07-22T12:55:56;22.40;92.00
2967;DHT22;1493;51.496;7.210;2022-07-22T12:58:27;22.90;1.00
2967;DHT22;1493;51.496;7.210;2022-07-22T13:00:56;23.40;99.90
2967;DHT22;1493;51.496;7.210;2022-07-22T13:03:24;23.80;1.00
2967;DHT22;1493;51.496;7.210;2022-07-22T13:05:55;24.00;99.90
2967;DHT22;1493;51.496;7.210;2022-07-22T13:08:23;23.70;1.00
2967;DHT22;1493;51.496;7.210;2022-07-22T13:10:50;22.90;1.00
2967;DHT22;1493;51.496;7.210;2022-07-22T13:13:18;22.90;1.00
2967;DHT22;1493;51.496;7.210;2022-07-22T13:15:45;23.00;1.00
2967;DHT22;1493;51.496;7.210;2022-07-22T13:18:12;22.80;99.90
2967;DHT22;1493;51.496;7.210;2022-07-22T13:20:39;23.40;1.00
2967;DHT22;1493;51.496;7.210;2022-07-22T13:23:07;23.60;99.90
2967;DHT22;1493;51.496;7.210;2022-07-22T13:25:35;24.00;99.90
2967;DHT22;1493;51.496;7.210;2022-07-22T13:28:02;23.80;6.20
2967;DHT22;1493;51.496;7.210;2022-07-22T13:30:29;24.10;99.30
2967;DHT22;1493;51.496;7.210;2022-07-22T13:32:57;23.70;1.00
2967;DHT22;1493;51.496;7.210;2022-07-22T13:35:23;24.00;54.30
2967;DHT22;1493;51.496;7.210;2022-07-22T13:37:50;24.00;1.00
2967;DHT22;1493;51.496;7.210;2022-07-22T13:40:19;23.80;1.00
2967;DHT22;1493;51.496;7.210;2022-07-22T13:42:46;23.80;1.00
2967;DHT22;1493;51.496;7.210;2022-07-22T13:45:13;23.70;99.90
2967;DHT22;1493;51.496;7.210;2022-07-22T13:47:40;23.70;99.90
2967;DHT22;1493;51.496;7.210;2022-07-22T13:50:08;23.60;98.80
2967;DHT22;1493;51.496;7.210;2022-07-22T13:52:35;23.00;1.00
2967;DHT22;1493;51.496;7.210;2022-07-22T13:55:02;23.20;99.90
2967;DHT22;1493;51.496;7.210;2022-07-22T13:57:31;23.40;99.90
2967;DHT22;1493;51.496;7.210;2022-07-22T13:59:58;23.50;99.90
2967;DHT22;1493;51.496;7.210;2022-07-22T14:02:25;23.80;99.90
2967;DHT22;1493;51.496;7.210;2022-07-22T14:04:51;24.20;99.90
2967;DHT22;1493;51.496;7.210;2022-07-22T14:07:18;24.40;99.00
2967;DHT22;1493;51.496;7.210;2022-07-22T14:09:45;24.60;99.90
2967;DHT22;1493;51.496;7.210;2022-07-22T14:12:12;24.60;1.00
2967;DHT22;1493;51.496;7.210;2022-07-22T14:14:41;24.40;50.90
2967;DHT22;1493;51.496;7.210;2022-07-22T14:17:07;24.60;99.90
2967;DHT22;1493;51.496;7.210;2022-07-22T14:19:34;25.00;22.50
2967;DHT22;1493;51.496;7.210;2022-07-22T14:22:01;25.40;17.00
2967;DHT22;1493;51.496;7.210;2022-07-22T14:24:28;25.80;1.00
2967;DHT22;1493;51.496;7.210;2022-07-22T14:26:55;26.10;1.00
2967;DHT22;1493;51.496;7.210;2022-07-22T14:29:22;26.30;1.00
2967;DHT22;1493;51.496;7.210;2022-07-22T14:31:50;26.50;1.00
2967;DHT22;1493;51.496;7.210;2022-07-22T14:34:17;26.50;1.00
2967;DHT22;1493;51.496;7.210;2022-07-22T14:36:44;26.20;1.00
2967;DHT22;1493;51.496;7.210;2022-07-22T14:39:11;26.10;1.00
2967;DHT22;1493;51.496;7.210;2022-07-22T14:41:38;25.80;1.00
2967;DHT22;1493;51.496;7.210;2022-07-22T14:44:05;25.60;1.00
2967;DHT22;1493;51.496;7.210;2022-07-22T14:46:32;25.90;1.00
2967;DHT22;1493;51.496;7.210;2022-07-22T14:49:00;26.10;1.00
2967;DHT22;1493;51.496;7.210;2022-07-22T14:51:27;26.40;1.00
2967;DHT22;1493;51.496;7.210;2022-07-22T14:53:54;26.40;1.00
2967;DHT22;1493;51.496;7.210;2022-07-22T14:56:21;26.50;1.00
2967;DHT22;1493;51.496;7.210;2022-07-22T14:58:48;26.70;1.00
2967;DHT22;1493;51.496;7.210;2022-07-22T15:01:14;27.00;1.00
2967;DHT22;1493;51.496;7.210;2022-07-22T15:03:41;27.30;1.00
2967;DHT22;1493;51.496;7.210;2022-07-22T15:06:10;27.20;1.00
2967;DHT22;1493;51.496;7.210;2022-07-22T15:08:37;27.20;1.00
2967;DHT22;1493;51.496;7.210;2022-07-22T15:11:04;26.80;1.00
2967;DHT22;1493;51.496;7.210;2022-07-22T15:13:31;26.40;1.00
2967;DHT22;1493;51.496;7.210;2022-07-22T15:15:58;26.10;1.00
2967;DHT22;1493;51.496;7.210;2022-07-22T15:18:25;25.90;1.00
2967;DHT22;1493;51.496;7.210;2022-07-22T15:20:52;25.60;1.00
2967;DHT22;1493;51.496;7.210;2022-07-22T15:23:22;25.20;1.00
2967;DHT22;1493;51.496;7.210;2022-07-22T15:25:51;25.00;1.00
2967;DHT22;1493;51.496;7.210;2022-07-22T15:28:19;25.00;1.00
2967;DHT22;1493;51.496;7.210;2022-07-22T15:30:46;24.90;1.00
2967;DHT22;1493;51.496;7.210;2022-07-22T15:33:13;25.00;1.00
2967;DHT22;1493;51.496;7.210;2022-07-22T15:35:40;25.10;1.00
2967;DHT22;1493;51.496;7.210;2022-07-22T15:38:06;24.90;1.00
2967;DHT22;1493;51.496;7.210;2022-07-22T15:40:35;24.90;1.00
2967;DHT22;1493;51.496;7.210;2022-07-22T15:43:02;24.80;1.00
2967;DHT22;1493;51.496;7.210;2022-07-22T15:45:29;25.00;1.00
2967;DHT22;1493;51.496;7.210;2022-07-22T15:47:55;24.80;1.00
2967;DHT22;1493;51.496;7.210;2022-07-22T15:50:22;24.60;1.00
2967;DHT22;1493;51.496;7.210;2022-07-22T15:52:50;24.30;1.00
2967;DHT22;1493;51.496;7.210;2022-07-22T15:55:17;23.90;1.00
2967;DHT22;1493;51.496;7.210;2022-07-22T15:57:45;24.00;1.00
2967;DHT22;1493;51.496;7.210;2022-07-22T16:00:31;24.20;1.00
2967;DHT22;1493;51.496;7.210;2022-07-22T16:02:58;24.10;1.00
2967;DHT22;1493;51.496;7.210;2022-07-22T16:05:25;24.10;1.00
2967;DHT22;1493;51.496;7.210;2022-07-22T16:07:52;24.10;1.00
2967;DHT22;1493;51.496;7.210;2022-07-22T16:10:19;23.90;1.00
2967;DHT22;1493;51.496;7.210;2022-07-22T16:12:48;23.90;1.00
2967;DHT22;1493;51.496;7.210;2022-07-22T16:15:14;24.00;52.10